sensor_id;sensor_type;location;lat;lon;timestamp;P1;durP1;ratioP1;P2;durP2;ratioP2
58240;SDS011;45058;55.772;38.224;2023-04-24T00:01:50;64.80;;;25.37;;
58240;SDS011;45058;55.772;38.224;2023-04-24T00:04:17;63.30;;;24.50;;
58240;SDS011;45058;55.772;38.224;2023-04-24T00:06:43;61.47;;;26.30;;
58240;SDS011;45058;55.772;38.224;2023-04-24T00:09:09;60.40;;;25.70;;
58240;SDS011;45058;55.772;38.224;2023-04-24T00:11:36;66.23;;;25.47;;
58240;SDS011;45058;55.772;38.224;2023-04-24T00:14:02;60.20;;;25.20;;
58240;SDS011;45058;55.772;38.224;2023-04-24T00:16:30;61.17;;;25.17;;
58240;SDS011;45058;55.772;38.224;2023-04-24T00:18:56;60.73;;;23.67;;
58240;SDS011;45058;55.772;38.224;2023-04-24T00:21:22;59.67;;;24.37;;
58240;SDS011;45058;55.772;38.224;2023-04-24T00:23:51;60.73;;;24.17;;
58240;SDS011;45058;55.772;38.224;2023-04-24T00:26:16;61.13;;;23.53;;
58240;SDS011;45058;55.772;38.224;2023-04-24T00:28:43;63.20;;;23.43;;
58240;SDS011;45058;55.772;38.224;2023-04-24T00:31:08;61.47;;;25.10;;
58240;SDS011;45058;55.772;38.224;2023-04-24T00:33:34;74.57;;;23.83;;
58240;SDS011;45058;55.772;38.224;2023-04-24T00:36:00;80.93;;;25.53;;
58240;SDS011;45058;55.772;38.224;2023-04-24T00:38:26;66.73;;;24.80;;
58240;SDS011;45058;55.772;38.224;2023-04-24T00:40:52;67.20;;;25.53;;
58240;SDS011;45058;55.772;38.224;2023-04-24T00:43:19;69.47;;;23.10;;
58240;SDS011;45058;55.772;38.224;2023-04-24T00:45:45;69.27;;;22.17;;
58240;SDS011;45058;55.772;38.224;2023-04-24T00:48:11;59.57;;;22.43;;
58240;SDS011;45058;55.772;38.224;2023-04-24T00:50:38;62.07;;;22.60;;
58240;SDS011;45058;55.772;38.224;2023-04-24T00:53:05;63.50;;;21.40;;
58240;SDS011;45058;55.772;38.224;2023-04-24T00:55:31;64.33;;;20.53;;
58240;SDS011;45058;55.772;38.224;2023-04-24T00:57:57;70.00;;;21.87;;
58240;SDS011;45058;55.772;38.224;2023-04-24T01:00:24;63.17;;;21.97;;
58240;SDS011;45058;55.772;38.224;2023-04-24T01:02:51;47.63;;;21.57;;
58240;SDS011;45058;55.772;38.224;2023-04-24T01:05:17;68.07;;;22.73;;
58240;SDS011;45058;55.772;38.224;2023-04-24T01:07:45;58.90;;;22.80;;
58240;SDS011;45058;55.772;38.224;2023-04-24T01:10:13;58.30;;;22.53;;
58240;SDS011;45058;55.772;38.224;2023-04-24T01:12:41;81.47;;;24.20;;
58240;SDS011;45058;55.772;38.224;2023-04-24T01:15:07;63.60;;;22.03;;
58240;SDS011;45058;55.772;38.224;2023-04-24T01:17:34;57.07;;;23.23;;
58240;SDS011;45058;55.772;38.224;2023-04-24T01:20:00;60.57;;;21.70;;
58240;SDS011;45058;55.772;38.224;2023-04-24T01:22:30;66.30;;;22.17;;
58240;SDS011;45058;55.772;38.224;2023-04-24T01:24:56;62.87;;;20.90;;
58240;SDS011;45058;55.772;38.224;2023-04-24T01:27:22;57.73;;;21.53;;
58240;SDS011;45058;55.772;38.224;2023-04-24T01:29:48;71.67;;;22.57;;
58240;SDS011;45058;55.772;38.224;2023-04-24T01:32:14;65.23;;;21.27;;
58240;SDS011;45058;55.772;38.224;2023-04-24T01:34:41;66.97;;;21.03;;
58240;SDS011;45058;55.772;38.224;2023-04-24T01:37:07;61.50;;;21.70;;
58240;SDS011;45058;55.772;38.224;2023-04-24T01:39:33;66.20;;;25.80;;
58240;SDS011;45058;55.772;38.224;2023-04-24T01:41:59;66.03;;;25.67;;
58240;SDS011;45058;55.772;38.224;2023-04-24T01:44:27;63.63;;;25.83;;
58240;SDS011;45058;55.772;38.224;2023-04-24T01:46:54;71.63;;;26.03;;
58240;SDS011;45058;55.772;38.224;2023-04-24T01:49:20;68.57;;;25.10;;
58240;SDS011;45058;55.772;38.224;2023-04-24T01:51:46;68.93;;;26.20;;
58240;SDS011;45058;55.772;38.224;2023-04-24T01:54:12;67.30;;;28.33;;
58240;SDS011;45058;55.772;38.224;2023-04-24T01:56:41;73.47;;;27.17;;
58240;SDS011;45058;55.772;38.224;2023-04-24T01:59:12;72.23;;;29.20;;
58240;SDS011;45058;55.772;38.224;2023-04-24T02:01:38;65.50;;;28.13;;
58240;SDS011;45058;55.772;38.224;2023-04-24T02:04:05;78.83;;;30.40;;
58240;SDS011;45058;55.772;38.224;2023-04-24T02:06:32;87.40;;;29.57;;
58240;SDS011;45058;55.772;38.224;2023-04-24T02:09:00;85.57;;;31.13;;
58240;SDS011;45058;55.772;38.224;2023-04-24T02:11:27;97.07;;;30.23;;
58240;SDS011;45058;55.772;38.224;2023-04-24T02:13:53;90.40;;;31.47;;
58240;SDS011;45058;55.772;38.224;2023-04-24T02:16:19;74.70;;;30.47;;
58240;SDS011;45058;55.772;38.224;2023-04-24T02:19:05;141.77;;;35.50;;
58240;SDS011;45058;55.772;38.224;2023-04-24T02:21:31;151.83;;;36.27;;
58240;SDS011;45058;55.772;38.224;2023-04-24T02:23:57;154.60;;;35.00;;
58240;SDS011;45058;55.772;38.224;2023-04-24T02:26:23;145.90;;;35.07;;
58240;SDS011;45058;55.772;38.224;2023-04-24T02:28:50;139.50;;;35.50;;
58240;SDS011;45058;55.772;38.224;2023-04-24T02:31:19;138.80;;;34.93;;
58240;SDS011;45058;55.772;38.224;2023-04-24T02:33:47;149.97;;;34.63;;
58240;SDS011;45058;55.772;38.224;2023-04-24T02:36:13;149.00;;;34.63;;
58240;SDS011;45058;55.772;38.224;2023-04-24T02:38:39;154.90;;;38.90;;
58240;SDS011;45058;55.772;38.224;2023-04-24T02:41:05;121.43;;;35.17;;
58240;SDS011;45058;55.772;38.224;2023-04-24T02:43:32;140.37;;;37.30;;
58240;SDS011;45058;55.772;38.224;2023-04-24T02:45:58;133.53;;;34.83;;
58240;SDS011;45058;55.772;38.224;2023-04-24T02:48:25;128.83;;;33.90;;
58240;SDS011;45058;55.772;38.224;2023-04-24T02:50:51;124.07;;;36.93;;
58240;SDS011;45058;55.772;38.224;2023-04-24T02:53:17;107.00;;;34.77;;
58240;SDS011;45058;55.772;38.224;2023-04-24T02:55:43;113.53;;;32.63;;
58240;SDS011;45058;55.772;38.224;2023-04-24T02:58:09;118.90;;;34.73;;
58240;SDS011;45058;55.772;38.224;2023-04-24T03:00:38;107.57;;;34.43;;
58240;SDS011;45058;55.772;38.224;2023-04-24T03:03:05;97.40;;;35.20;;
58240;SDS011;45058;55.772;38.224;2023-04-24T03:05:32;111.90;;;34.97;;
58240;SDS011;45058;55.772;38.224;2023-04-24T03:07:58;109.23;;;36.00;;
58240;SDS011;45058;55.772;38.224;2023-04-24T03:10:24;122.23;;;37.37;;
58240;SDS011;45058;55.772;38.224;2023-04-24T03:12:49;132.17;;;38.67;;
58240;SDS011;45058;55.772;38.224;2023-04-24T03:15:17;132.10;;;38.60;;
58240;SDS011;45058;55.772;38.224;2023-04-24T03:17:43;136.40;;;37.90;;
58240;SDS011;45058;55.772;38.224;2023-04-24T03:20:09;142.43;;;38.50;;
58240;SDS011;45058;55.772;38.224;2023-04-24T03:22:36;120.70;;;37.37;;
58240;SDS011;45058;55.772;38.224;2023-04-24T03:25:05;150.20;;;39.87;;
58240;SDS011;45058;55.772;38.224;2023-04-24T03:27:34;114.23;;;36.73;;
58240;SDS011;45058;55.772;38.224;2023-04-24T03:30:05;96.60;;;36.63;;
58240;SDS011;45058;55.772;38.224;2023-04-24T03:32:53;90.57;;;35.60;;
58240;SDS011;45058;55.772;38.224;2023-04-24T03:35:24;103.83;;;36.80;;
58240;SDS011;45058;55.772;38.224;2023-04-24T03:37:51;93.90;;;35.50;;
58240;SDS011;45058;55.772;38.224;2023-04-24T03:40:46;79.17;;;33.63;;
58240;SDS011;45058;55.772;38.224;2023-04-24T03:43:34;77.13;;;31.77;;
58240;SDS011;45058;55.772;38.224;2023-04-24T03:46:01;85.53;;;33.37;;
58240;SDS011;45058;55.772;38.224;2023-04-24T03:48:29;70.93;;;31.93;;
58240;SDS011;45058;55.772;38.224;2023-04-24T03:50:55;85.97;;;32.63;;
58240;SDS011;45058;55.772;38.224;2023-04-24T03:53:22;70.90;;;29.30;;
58240;SDS011;45058;55.772;38.224;2023-04-24T03:55:48;84.40;;;27.60;;
58240;SDS011;45058;55.772;38.224;2023-04-24T03:58:14;75.63;;;26.67;;
58240;SDS011;45058;55.772;38.224;2023-04-24T04:00:40;96.15;;;28.00;;
58240;SDS011;45058;55.772;38.224;2023-04-24T04:03:25;53.35;;;24.52;;
58240;SDS011;45058;55.772;38.224;2023-04-24T04:05:51;51.40;;;22.23;;
58240;SDS011;45058;55.772;38.224;2023-04-24T04:08:17;60.78;;;25.27;;
58240;SDS011;45058;55.772;38.224;2023-04-24T04:10:43;55.13;;;25.13;;
58240;SDS011;45058;55.772;38.224;2023-04-24T04:13:09;53.17;;;25.30;;
58240;SDS011;45058;55.772;38.224;2023-04-24T04:15:35;58.30;;;24.83;;
58240;SDS011;45058;55.772;38.224;2023-04-24T04:18:01;53.47;;;24.98;;
58240;SDS011;45058;55.772;38.224;2023-04-24T04:20:28;50.15;;;24.27;;
58240;SDS011;45058;55.772;38.224;2023-04-24T04:22:54;51.88;;;24.75;;
58240;SDS011;45058;55.772;38.224;2023-04-24T04:25:30;52.53;;;23.65;;
58240;SDS011;45058;55.772;38.224;2023-04-24T04:27:56;48.08;;;20.08;;
58240;SDS011;45058;55.772;38.224;2023-04-24T04:30:25;36.95;;;19.83;;
58240;SDS011;45058;55.772;38.224;2023-04-24T04:32:56;39.47;;;19.73;;
58240;SDS011;45058;55.772;38.224;2023-04-24T04:35:23;38.03;;;19.23;;
58240;SDS011;45058;55.772;38.224;2023-04-24T04:37:51;33.10;;;16.73;;
58240;SDS011;45058;55.772;38.224;2023-04-24T04:40:36;33.20;;;16.70;;
58240;SDS011;45058;55.772;38.224;2023-04-24T04:43:05;36.90;;;18.40;;
58240;SDS011;45058;55.772;38.224;2023-04-24T04:45:38;25.60;;;16.48;;
58240;SDS011;45058;55.772;38.224;2023-04-24T04:48:21;32.05;;;17.25;;
58240;SDS011;45058;55.772;38.224;2023-04-24T04:50:48;36.40;;;14.80;;
58240;SDS011;45058;55.772;38.224;2023-04-24T04:53:16;30.52;;;14.90;;
58240;SDS011;45058;55.772;38.224;2023-04-24T04:55:42;26.70;;;13.60;;
58240;SDS011;45058;55.772;38.224;2023-04-24T04:58:14;22.27;;;14.25;;
58240;SDS011;45058;55.772;38.224;2023-04-24T05:00:41;24.20;;;13.27;;
58240;SDS011;45058;55.772;38.224;2023-04-24T05:03:16;25.88;;;14.18;;
58240;SDS011;45058;55.772;38.224;2023-04-24T05:05:42;34.15;;;12.90;;
58240;SDS011;45058;55.772;38.224;2023-04-24T05:08:12;25.05;;;12.35;;
58240;SDS011;45058;55.772;38.224;2023-04-24T05:10:38;20.58;;;12.13;;
58240;SDS011;45058;55.772;38.224;2023-04-24T05:13:05;23.35;;;11.70;;
58240;SDS011;45058;55.772;38.224;2023-04-24T05:15:32;31.95;;;11.90;;
58240;SDS011;45058;55.772;38.224;2023-04-24T05:17:59;25.20;;;11.30;;
58240;SDS011;45058;55.772;38.224;2023-04-24T05:20:27;27.92;;;11.75;;
58240;SDS011;45058;55.772;38.224;2023-04-24T05:22:53;21.98;;;11.43;;
58240;SDS011;45058;55.772;38.224;2023-04-24T05:25:21;22.63;;;11.70;;
58240;SDS011;45058;55.772;38.224;2023-04-24T05:27:57;22.20;;;11.07;;
58240;SDS011;45058;55.772;38.224;2023-04-24T13:19:26;7.82;;;4.18;;
58240;SDS011;45058;55.772;38.224;2023-04-24T13:21:53;6.60;;;3.40;;
58240;SDS011;45058;55.772;38.224;2023-04-24T13:24:21;9.73;;;3.90;;
58240;SDS011;45058;55.772;38.224;2023-04-24T13:26:50;15.13;;;3.72;;
58240;SDS011;45058;55.772;38.224;2023-04-24T13:29:17;7.07;;;3.80;;
58240;SDS011;45058;55.772;38.224;2023-04-24T13:31:43;8.20;;;3.70;;
58240;SDS011;45058;55.772;38.224;2023-04-24T13:39:02;18.58;;;4.30;;
58240;SDS011;45058;55.772;38.224;2023-04-24T13:41:32;9.40;;;4.00;;
58240;SDS011;45058;55.772;38.224;2023-04-24T13:48:50;10.38;;;4.50;;
58240;SDS011;45058;55.772;38.224;2023-04-24T14:01:02;24.13;;;9.82;;
58240;SDS011;45058;55.772;38.224;2023-04-24T14:03:28;15.15;;;6.20;;
58240;SDS011;45058;55.772;38.224;2023-04-24T14:32:43;13.50;;;3.60;;
58240;SDS011;45058;55.772;38.224;2023-04-24T14:35:09;12.15;;;4.00;;
58240;SDS011;45058;55.772;38.224;2023-04-24T14:40:01;7.93;;;3.90;;
58240;SDS011;45058;55.772;38.224;2023-04-24T14:42:29;8.98;;;3.65;;
58240;SDS011;45058;55.772;38.224;2023-04-24T14:49:47;15.43;;;4.03;;
58240;SDS011;45058;55.772;38.224;2023-04-24T22:08:33;121.85;;;35.08;;
58240;SDS011;45058;55.772;38.224;2023-04-24T22:10:59;174.05;;;61.13;;
58240;SDS011;45058;55.772;38.224;2023-04-24T22:13:25;154.05;;;61.13;;
58240;SDS011;45058;55.772;38.224;2023-04-24T22:15:52;122.18;;;47.58;;
58240;SDS011;45058;55.772;38.224;2023-04-24T22:18:18;67.63;;;30.25;;
58240;SDS011;45058;55.772;38.224;2023-04-24T22:20:44;73.85;;;31.38;;
58240;SDS011;45058;55.772;38.224;2023-04-24T22:23:11;64.80;;;26.95;;
58240;SDS011;45058;55.772;38.224;2023-04-24T22:25:37;46.78;;;21.77;;
58240;SDS011;45058;55.772;38.224;2023-04-24T22:28:03;59.03;;;26.15;;
58240;SDS011;45058;55.772;38.224;2023-04-24T22:30:29;58.33;;;23.40;;
58240;SDS011;45058;55.772;38.224;2023-04-24T22:32:55;44.50;;;18.33;;
58240;SDS011;45058;55.772;38.224;2023-04-24T22:35:22;42.10;;;16.38;;
58240;SDS011;45058;55.772;38.224;2023-04-24T22:37:52;26.52;;;13.18;;
58240;SDS011;45058;55.772;38.224;2023-04-24T22:40:19;29.08;;;11.68;;
58240;SDS011;45058;55.772;38.224;2023-04-24T22:42:45;26.27;;;12.23;;
58240;SDS011;45058;55.772;38.224;2023-04-24T22:45:11;29.88;;;11.27;;
58240;SDS011;45058;55.772;38.224;2023-04-24T22:47:38;24.65;;;11.63;;
58240;SDS011;45058;55.772;38.224;2023-04-24T22:50:05;24.63;;;12.05;;
58240;SDS011;45058;55.772;38.224;2023-04-24T22:52:32;22.80;;;11.23;;
58240;SDS011;45058;55.772;38.224;2023-04-24T22:55:00;22.58;;;10.77;;
58240;SDS011;45058;55.772;38.224;2023-04-24T22:57:26;25.55;;;11.23;;
58240;SDS011;45058;55.772;38.224;2023-04-24T22:59:54;29.83;;;11.30;;
58240;SDS011;45058;55.772;38.224;2023-04-24T23:02:20;19.27;;;10.43;;
58240;SDS011;45058;55.772;38.224;2023-04-24T23:04:47;28.83;;;10.98;;
58240;SDS011;45058;55.772;38.224;2023-04-24T23:07:13;19.27;;;10.13;;
58240;SDS011;45058;55.772;38.224;2023-04-24T23:19:22;24.50;;;11.45;;
58240;SDS011;45058;55.772;38.224;2023-04-24T23:21:48;26.58;;;10.90;;
58240;SDS011;45058;55.772;38.224;2023-04-24T23:24:14;30.23;;;9.40;;
58240;SDS011;45058;55.772;38.224;2023-04-24T23:26:41;24.02;;;10.02;;
58240;SDS011;45058;55.772;38.224;2023-04-24T23:29:06;22.23;;;9.68;;
58240;SDS011;45058;55.772;38.224;2023-04-24T23:31:32;24.10;;;9.88;;
58240;SDS011;45058;55.772;38.224;2023-04-24T23:33:58;21.17;;;9.30;;
58240;SDS011;45058;55.772;38.224;2023-04-24T23:36:26;17.98;;;9.43;;
58240;SDS011;45058;55.772;38.224;2023-04-24T23:38:52;20.42;;;8.80;;
58240;SDS011;45058;55.772;38.224;2023-04-24T23:41:18;20.92;;;8.65;;
58240;SDS011;45058;55.772;38.224;2023-04-24T23:43:44;20.00;;;9.23;;
58240;SDS011;45058;55.772;38.224;2023-04-24T23:46:10;20.95;;;8.55;;
58240;SDS011;45058;55.772;38.224;2023-04-24T23:48:36;21.33;;;9.88;;
58240;SDS011;45058;55.772;38.224;2023-04-24T23:51:02;19.85;;;8.68;;
58240;SDS011;45058;55.772;38.224;2023-04-24T23:53:28;17.58;;;8.88;;
